createdAt,value
2023-04-13T00:02:22.013Z,16.00
2023-04-13T00:04:54.760Z,21.40
2023-04-13T00:07:28.335Z,21.50
2023-04-13T00:10:03.049Z,20.20
2023-04-13T00:12:35.392Z,21.30
2023-04-13T00:15:08.551Z,21.80
2023-04-13T00:17:40.306Z,20.90
2023-04-13T00:20:14.686Z,21.70
2023-04-13T00:22:47.880Z,22.00
2023-04-13T00:25:20.131Z,21.40
2023-04-13T00:27:53.850Z,21.20
2023-04-13T00:30:25.557Z,20.10
2023-04-13T00:32:59.577Z,21.50
2023-04-13T00:35:32.873Z,20.90
2023-04-13T00:38:04.854Z,20.70
2023-04-13T00:40:37.792Z,21.00
2023-04-13T00:43:09.856Z,21.60
2023-04-13T00:45:41.981Z,20.80
2023-04-13T00:48:14.435Z,22.20
2023-04-13T00:50:46.428Z,21.20
2023-04-13T00:53:18.578Z,20.10
2023-04-13T00:55:51.757Z,20.50
2023-04-13T00:58:23.710Z,20.10
2023-04-13T01:00:55.665Z,21.60
2023-04-13T01:03:27.540Z,22.70
2023-04-13T01:06:14.260Z,22.20
2023-04-13T01:08:51.760Z,22.20
2023-04-13T01:11:30.047Z,20.90
2023-04-13T01:14:10.117Z,21.10
2023-04-13T01:16:49.247Z,20.40
2023-04-13T01:19:29.530Z,23.00
2023-04-13T01:22:03.517Z,24.10
2023-04-13T01:24:48.107Z,22.20
2023-04-13T01:27:25.663Z,21.80
2023-04-13T01:29:58.936Z,21.10
2023-04-13T01:32:33.280Z,21.40
2023-04-13T01:35:06.710Z,22.10
2023-04-13T01:37:38.971Z,21.10
2023-04-13T01:40:13.487Z,21.70
2023-04-13T01:42:49.385Z,21.20
2023-04-13T01:45:24.048Z,22.50
2023-04-13T01:48:05.771Z,20.50
2023-04-13T01:50:59.683Z,22.10
2023-04-13T01:53:45.938Z,21.20
2023-04-13T01:56:23.008Z,21.90
2023-04-13T01:59:00.802Z,20.70
2023-04-13T02:01:34.042Z,22.20
2023-04-13T02:04:07.764Z,21.10
2023-04-13T02:06:42.239Z,21.30
2023-04-13T02:09:14.497Z,22.40
2023-04-13T02:11:47.414Z,22.40
2023-04-13T02:14:19.186Z,20.80
2023-04-13T02:16:51.831Z,20.80
2023-04-13T02:19:24.644Z,21.90
2023-04-13T02:21:56.902Z,21.00
2023-04-13T02:24:30.185Z,21.00
2023-04-13T02:27:02.061Z,21.00
2023-04-13T02:29:34.261Z,16.80
2023-04-13T02:32:07.861Z,19.40
2023-04-13T02:34:39.903Z,19.50
2023-04-13T02:37:12.691Z,20.20
2023-04-13T02:39:44.487Z,22.00
2023-04-13T02:42:16.409Z,20.10
2023-04-13T02:44:49.965Z,19.80
2023-04-13T02:47:22.632Z,21.10
2023-04-13T02:49:55.085Z,19.70
2023-04-13T02:52:32.012Z,20.30
2023-04-13T02:55:09.633Z,21.60
2023-04-13T02:58:02.685Z,19.90
2023-04-13T03:00:37.448Z,19.50
2023-04-13T03:03:13.234Z,20.80
2023-04-13T03:05:50.521Z,19.80
2023-04-13T03:08:26.098Z,20.20
2023-04-13T03:11:18.815Z,19.70
2023-04-13T03:13:58.335Z,19.90
2023-04-13T03:16:32.088Z,20.00
2023-04-13T03:19:05.396Z,20.50
2023-04-13T03:21:37.670Z,21.00
2023-04-13T03:26:50.855Z,19.30
2023-04-13T03:29:26.816Z,20.40
2023-04-13T03:31:58.625Z,15.20
2023-04-13T03:34:31.907Z,21.00
2023-04-13T03:37:05.424Z,19.20
2023-04-13T03:39:37.279Z,14.70
2023-04-13T03:42:09.322Z,20.10
2023-04-13T03:44:42.989Z,21.00
2023-04-13T03:47:14.797Z,14.60
2023-04-13T03:49:46.607Z,20.00
2023-04-13T03:52:18.610Z,19.00
2023-04-13T03:54:56.542Z,20.30
2023-04-13T03:57:30.722Z,19.90
2023-04-13T04:00:03.817Z,20.60
2023-04-13T04:02:58.244Z,19.40
2023-04-13T04:05:36.517Z,20.10
2023-04-13T04:10:39.738Z,20.80
2023-04-13T04:13:11.984Z,19.20
2023-04-13T04:15:47.298Z,20.10
2023-04-13T04:18:19.874Z,19.70
2023-04-13T04:20:52.082Z,14.20
2023-04-13T04:23:28.209Z,19.90
2023-04-13T04:26:07.450Z,19.90
2023-04-13T04:28:50.624Z,19.60
2023-04-13T04:31:25.161Z,20.40
2023-04-13T04:33:58.544Z,19.60
2023-04-13T04:36:30.904Z,19.80
2023-04-13T04:39:06.188Z,19.90
2023-04-13T04:41:44.090Z,19.20
2023-04-13T04:44:17.895Z,19.80
2023-04-13T04:46:52.284Z,20.10
2023-04-13T04:49:24.437Z,21.60
2023-04-13T04:51:59.099Z,19.70
2023-04-13T04:54:30.905Z,13.30
2023-04-13T04:57:04.074Z,19.60
2023-04-13T04:59:36.223Z,20.00
2023-04-13T05:02:08.238Z,15.40
2023-04-13T05:04:42.032Z,20.40
2023-04-13T05:07:17.624Z,20.20
2023-04-13T05:09:50.297Z,18.60
2023-04-13T05:12:23.085Z,20.90
2023-04-13T05:14:55.036Z,19.70
2023-04-13T05:17:27.387Z,15.00
2023-04-13T05:22:41.592Z,22.00
2023-04-13T05:25:14.651Z,20.10
2023-04-13T05:27:47.532Z,20.30
2023-04-13T05:30:20.096Z,19.70
2023-04-13T05:32:53.025Z,19.30
2023-04-13T05:35:27.871Z,16.40
2023-04-13T05:38:01.256Z,19.50
2023-04-13T05:40:35.299Z,19.70
2023-04-13T05:43:07.894Z,20.80
2023-04-13T05:45:43.488Z,19.80
2023-04-13T05:48:18.046Z,18.90
2023-04-13T05:50:50.865Z,20.50
2023-04-13T05:53:23.620Z,20.40
2023-04-13T05:55:59.668Z,20.70
2023-04-13T05:58:31.868Z,18.40
2023-04-13T06:01:24.380Z,21.20
2023-04-13T06:03:57.897Z,20.10
2023-04-13T06:06:30.395Z,20.50
2023-04-13T06:09:02.911Z,20.70
2023-04-13T06:11:34.978Z,20.40
2023-04-13T06:16:38.329Z,19.40
2023-04-13T06:19:12.394Z,18.50
2023-04-13T06:21:44.600Z,19.40
2023-04-13T06:24:18.637Z,20.20
2023-04-13T06:26:51.257Z,19.20
2023-04-13T06:29:23.548Z,20.30
2023-04-13T06:32:04.270Z,18.20
2023-04-13T06:37:07.934Z,18.40
2023-04-13T06:39:47.588Z,17.60
2023-04-13T06:42:20.641Z,17.80
2023-04-13T06:45:24.738Z,18.20
2023-04-13T06:47:57.048Z,17.90
2023-04-13T06:50:30.012Z,17.90
2023-04-13T06:53:03.601Z,18.70
2023-04-13T06:55:36.252Z,17.50
2023-04-13T06:58:08.290Z,17.50
2023-04-13T07:00:40.121Z,17.00
2023-04-13T07:03:12.227Z,17.90
2023-04-13T07:05:45.104Z,17.50
2023-04-13T07:08:20.198Z,18.00
2023-04-13T07:10:57.984Z,18.40
2023-04-13T07:13:37.186Z,19.10
2023-04-13T07:16:12.386Z,18.10
2023-04-13T07:18:47.075Z,19.20
2023-04-13T07:21:19.084Z,17.70
2023-04-13T07:24:04.735Z,18.70
2023-04-13T07:26:37.008Z,18.40
2023-04-13T07:29:13.673Z,19.10
2023-04-13T07:31:48.902Z,18.00
2023-04-13T07:34:21.858Z,18.10
2023-04-13T07:36:54.454Z,17.20
2023-04-13T07:39:27.859Z,17.80
2023-04-13T07:42:00.309Z,19.00
2023-04-13T07:44:39.399Z,18.30
2023-04-13T07:47:13.914Z,18.50
2023-04-13T07:49:46.777Z,17.90
2023-04-13T07:52:21.958Z,20.50
2023-04-13T07:54:54.123Z,18.90
2023-04-13T07:57:27.509Z,19.10
2023-04-13T08:00:05.175Z,19.20
2023-04-13T08:02:45.931Z,16.90
2023-04-13T08:05:22.043Z,17.20
2023-04-13T08:07:54.632Z,16.80
2023-04-13T08:10:27.047Z,16.70
2023-04-13T08:13:00.466Z,13.40
2023-04-13T08:15:32.637Z,13.80
2023-04-13T08:18:04.894Z,13.40
2023-04-13T08:20:37.541Z,10.90
2023-04-13T08:23:12.473Z,12.20
2023-04-13T08:25:45.511Z,12.50
2023-04-13T08:28:20.554Z,12.90
2023-04-13T08:30:52.597Z,14.50
2023-04-13T08:33:24.444Z,12.50
2023-04-13T08:35:56.336Z,12.60
2023-04-13T08:38:28.604Z,13.20
2023-04-13T08:41:02.506Z,12.20
2023-04-13T08:43:36.910Z,12.10
2023-04-13T08:46:10.246Z,11.80
2023-04-13T08:48:53.567Z,13.90
2023-04-13T08:51:31.275Z,14.30
2023-04-13T08:54:03.080Z,14.30
2023-04-13T08:56:46.652Z,14.30
2023-04-13T08:59:24.199Z,15.10
2023-04-13T09:01:57.393Z,15.10
2023-04-13T09:04:35.768Z,14.80
2023-04-13T09:07:09.313Z,10.60
2023-04-13T09:09:45.799Z,10.70
2023-04-13T09:12:18.810Z,9.90
2023-04-13T09:14:51.234Z,10.80
2023-04-13T09:17:28.011Z,10.00
2023-04-13T09:20:14.868Z,9.80
2023-04-13T09:22:47.048Z,10.00
2023-04-13T09:25:27.523Z,10.70
2023-04-13T09:28:00.921Z,8.60
2023-04-13T09:30:32.725Z,9.20
2023-04-13T09:33:10.519Z,6.70
2023-04-13T09:35:43.209Z,9.10
2023-04-13T09:38:18.061Z,8.40
2023-04-13T09:40:54.519Z,8.40
2023-04-13T09:43:37.646Z,8.30
2023-04-13T09:46:14.884Z,10.20
2023-04-13T09:48:46.962Z,8.80
2023-04-13T09:51:20.383Z,10.30
2023-04-13T09:53:56.249Z,9.50
2023-04-13T09:56:28.432Z,9.90
2023-04-13T09:59:00.505Z,10.40
2023-04-13T10:01:32.963Z,10.10
2023-04-13T10:04:07.582Z,11.20
2023-04-13T10:06:43.225Z,10.80
2023-04-13T10:09:16.082Z,9.70
2023-04-13T10:14:22.949Z,8.90
2023-04-13T10:17:12.885Z,9.60
2023-04-13T10:19:47.798Z,8.50
2023-04-13T10:22:22.798Z,9.30
2023-04-13T10:24:55.122Z,8.80
2023-04-13T10:27:29.886Z,8.30
2023-04-13T10:30:04.091Z,8.90
2023-04-13T10:32:36.017Z,8.60
2023-04-13T10:35:15.189Z,7.40
2023-04-13T10:37:57.572Z,7.10
2023-04-13T10:40:29.763Z,5.80
2023-04-13T10:43:01.831Z,3.90
2023-04-13T10:45:37.004Z,3.90
2023-04-13T10:48:09.152Z,5.90
2023-04-13T10:50:41.448Z,6.00
2023-04-13T10:53:13.299Z,5.00
2023-04-13T10:55:45.236Z,5.40
2023-04-13T10:58:18.606Z,4.60
2023-04-13T11:00:52.238Z,6.00
2023-04-13T11:03:27.743Z,5.70
2023-04-13T11:06:01.341Z,5.90
2023-04-13T11:08:34.979Z,5.90
2023-04-13T11:11:16.801Z,5.30
2023-04-13T11:13:50.595Z,5.00
2023-04-13T11:16:22.488Z,5.60
2023-04-13T11:19:05.039Z,4.40
2023-04-13T11:21:37.175Z,4.00
2023-04-13T11:24:10.228Z,4.40
2023-04-13T11:26:43.482Z,4.70
2023-04-13T11:29:21.743Z,5.10
2023-04-13T11:31:53.603Z,5.20
2023-04-13T11:34:29.790Z,4.20
2023-04-13T11:37:05.737Z,4.90
2023-04-13T11:39:40.069Z,2.70
2023-04-13T11:42:12.638Z,3.80
2023-04-13T11:44:46.414Z,4.00
2023-04-13T11:47:21.253Z,4.40
2023-04-13T11:49:53.871Z,4.40
2023-04-13T11:52:26.665Z,4.50
2023-04-13T11:55:04.684Z,4.70
2023-04-13T11:57:43.069Z,5.00
2023-04-13T12:00:23.947Z,5.50
2023-04-13T12:05:34.458Z,5.20
2023-04-13T12:08:07.399Z,4.20
2023-04-13T12:10:47.030Z,4.70
2023-04-13T12:13:40.036Z,5.30
2023-04-13T12:19:12.674Z,4.80
2023-04-13T12:21:56.830Z,3.40
2023-04-13T12:24:38.664Z,3.80
2023-04-13T12:27:18.372Z,3.50
2023-04-13T12:29:50.814Z,3.20
2023-04-13T12:32:26.993Z,2.60
2023-04-13T12:34:58.850Z,3.10
2023-04-13T12:37:30.616Z,3.00
2023-04-13T12:40:05.488Z,2.70
2023-04-13T12:42:37.724Z,3.10
2023-04-13T12:45:11.421Z,2.80
2023-04-13T12:47:43.347Z,3.30
2023-04-13T12:50:15.780Z,2.80
2023-04-13T12:52:47.648Z,3.80
2023-04-13T12:55:19.434Z,3.50
2023-04-13T12:57:51.378Z,3.20
2023-04-13T13:00:24.740Z,2.60
2023-04-13T13:03:10.141Z,2.70
2023-04-13T13:05:45.149Z,2.70
2023-04-13T13:08:17.279Z,2.30
2023-04-13T13:10:49.147Z,3.40
2023-04-13T13:13:21.396Z,2.90
2023-04-13T13:15:53.238Z,2.50
2023-04-13T13:18:38.488Z,2.50
2023-04-13T13:21:19.356Z,2.30
2023-04-13T13:23:51.580Z,2.50
2023-04-13T13:26:25.115Z,1.50
2023-04-13T13:29:01.075Z,2.00
2023-04-13T13:31:33.438Z,2.10
2023-04-13T13:34:05.625Z,2.70
2023-04-13T13:36:40.340Z,2.30
2023-04-13T13:39:13.420Z,2.30
2023-04-13T13:41:45.371Z,1.90
2023-04-13T13:44:17.529Z,1.80
2023-04-13T13:46:49.884Z,1.80
2023-04-13T13:49:24.897Z,1.90
2023-04-13T13:52:17.153Z,1.80
2023-04-13T13:54:52.376Z,2.30
2023-04-13T13:57:24.630Z,2.00
2023-04-13T13:59:56.907Z,2.50
2023-04-13T14:02:28.883Z,2.10
2023-04-13T14:05:01.141Z,2.50
2023-04-13T14:07:33.826Z,2.90
2023-04-13T14:10:06.475Z,3.00
2023-04-13T14:15:13.378Z,2.70
2023-04-13T14:17:55.517Z,2.00
2023-04-13T14:20:34.044Z,2.40
2023-04-13T14:23:05.998Z,2.60
2023-04-13T14:25:38.714Z,2.70
2023-04-13T14:30:42.039Z,5.50
2023-04-13T14:33:14.759Z,3.00
2023-04-13T14:38:17.833Z,3.10
2023-04-13T14:40:49.753Z,2.60
2023-04-13T14:43:21.662Z,3.70
2023-04-13T14:45:56.505Z,3.00
2023-04-13T14:48:28.524Z,2.80
2023-04-13T14:51:00.956Z,3.10
2023-04-13T14:53:33.059Z,2.50
2023-04-13T14:56:05.556Z,2.50
2023-04-13T14:58:37.427Z,2.20
2023-04-13T15:01:19.898Z,2.10
2023-04-13T15:03:53.418Z,1.40
2023-04-13T15:06:27.335Z,1.60
2023-04-13T15:09:00.693Z,1.20
2023-04-13T15:11:33.645Z,1.30
2023-04-13T15:14:05.779Z,1.90
2023-04-13T15:16:37.886Z,1.60
2023-04-13T15:19:09.931Z,1.90
2023-04-13T15:21:41.820Z,2.50
2023-04-13T15:24:13.785Z,3.30
2023-04-13T15:26:46.041Z,3.50
2023-04-13T15:29:17.874Z,2.60
2023-04-13T15:31:51.702Z,2.50
2023-04-13T15:34:24.542Z,2.90
2023-04-13T15:39:28.403Z,2.20
2023-04-13T15:42:00.517Z,2.40
2023-04-13T15:44:32.538Z,1.70
2023-04-13T15:47:04.446Z,1.90
2023-04-13T15:49:36.394Z,2.10
2023-04-13T15:52:08.521Z,2.80
2023-04-13T15:54:41.258Z,3.10
2023-04-13T15:57:13.236Z,3.20
2023-04-13T15:59:46.421Z,2.80
2023-04-13T16:02:18.489Z,1.90
2023-04-13T16:04:51.011Z,2.20
2023-04-13T16:07:23.353Z,1.80
2023-04-13T16:09:58.320Z,1.60
2023-04-13T16:12:32.424Z,1.80
2023-04-13T16:15:06.259Z,2.30
2023-04-13T16:17:41.027Z,2.40
2023-04-13T16:20:21.276Z,2.20
2023-04-13T16:22:58.104Z,2.60
2023-04-13T16:25:30.771Z,6.60
2023-04-13T16:28:02.695Z,16.10
2023-04-13T16:30:34.618Z,4.70
2023-04-13T16:33:06.724Z,29.10
2023-04-13T16:35:38.620Z,24.60
2023-04-13T16:38:10.799Z,17.20
2023-04-13T16:40:46.209Z,16.10
2023-04-13T16:43:19.429Z,12.00
2023-04-13T16:45:52.345Z,5.70
2023-04-13T16:48:26.980Z,6.10
2023-04-13T16:51:02.601Z,3.00
2023-04-13T16:53:34.538Z,2.20
2023-04-13T16:56:07.336Z,1.90
2023-04-13T16:58:39.396Z,1.70
2023-04-13T17:01:11.523Z,1.50
2023-04-13T17:03:43.544Z,2.10
2023-04-13T17:06:15.835Z,2.00
2023-04-13T17:08:48.212Z,2.60
2023-04-13T17:13:51.513Z,3.20
2023-04-13T17:16:24.751Z,4.30
2023-04-13T17:18:56.661Z,2.80
2023-04-13T17:21:28.744Z,3.60
2023-04-13T17:24:00.682Z,3.60
2023-04-13T17:26:33.258Z,3.80
2023-04-13T17:29:05.077Z,4.00
2023-04-13T17:31:37.454Z,3.70
2023-04-13T17:34:09.528Z,4.60
2023-04-13T17:36:41.411Z,4.90
2023-04-13T17:39:13.260Z,5.30
2023-04-13T17:41:45.570Z,4.90
2023-04-13T17:44:17.678Z,4.60
2023-04-13T17:46:54.351Z,3.90
2023-04-13T17:49:27.887Z,4.10
2023-04-13T17:52:01.742Z,4.30
2023-04-13T17:54:34.103Z,4.70
2023-04-13T17:57:07.336Z,4.40
2023-04-13T17:59:39.645Z,3.50
2023-04-13T18:02:11.900Z,3.10
2023-04-13T18:04:44.798Z,2.90
2023-04-13T18:07:17.482Z,2.70
2023-04-13T18:12:20.259Z,2.90
2023-04-13T18:14:52.125Z,3.60
2023-04-13T18:17:24.335Z,3.60
2023-04-13T18:19:56.621Z,3.30
2023-04-13T18:22:28.559Z,7.60
2023-04-13T18:25:00.715Z,6.30
2023-04-13T18:27:32.680Z,5.50
2023-04-13T18:30:04.868Z,5.30
2023-04-13T18:32:37.538Z,5.70
2023-04-13T18:35:12.379Z,5.60
2023-04-13T18:37:44.658Z,4.80
2023-04-13T18:40:17.039Z,4.40
2023-04-13T18:42:50.084Z,4.80
2023-04-13T18:45:22.554Z,5.00
2023-04-13T18:47:55.067Z,5.60
2023-04-13T18:50:27.654Z,5.70
2023-04-13T18:55:31.327Z,5.50
2023-04-13T18:58:03.433Z,6.60
2023-04-13T19:00:38.464Z,7.20
2023-04-13T19:03:11.211Z,7.00
2023-04-13T19:05:43.932Z,7.20
2023-04-13T19:10:49.312Z,5.90
2023-04-13T19:13:21.586Z,7.50
2023-04-13T19:15:54.373Z,7.90
2023-04-13T19:18:27.847Z,7.40
2023-04-13T19:21:01.082Z,7.70
2023-04-13T19:23:33.279Z,13.00
2023-04-13T19:26:06.389Z,9.30
2023-04-13T19:28:38.630Z,7.10
2023-04-13T19:31:11.765Z,7.60
2023-04-13T19:36:14.999Z,7.20
2023-04-13T19:41:19.157Z,7.30
2023-04-13T19:43:51.563Z,6.60
2023-04-13T19:48:54.445Z,5.30
2023-04-13T19:51:26.663Z,3.60
2023-04-13T19:54:01.241Z,5.20
2023-04-13T19:56:35.685Z,5.00
2023-04-13T19:59:09.222Z,5.40
2023-04-13T20:01:41.732Z,6.50
2023-04-13T20:06:45.043Z,7.60
2023-04-13T20:09:17.342Z,8.00
2023-04-13T20:11:49.421Z,7.20
2023-04-13T20:14:21.762Z,7.40
2023-04-13T20:16:53.731Z,7.00
2023-04-13T20:19:26.166Z,7.10
2023-04-13T20:22:02.094Z,5.30
2023-04-13T20:24:34.579Z,4.90
2023-04-13T20:27:06.845Z,4.30
2023-04-13T20:29:41.839Z,5.50
2023-04-13T20:32:13.831Z,5.60
2023-04-13T20:34:45.949Z,3.90
2023-04-13T20:37:18.577Z,5.90
2023-04-13T20:42:23.444Z,7.30
2023-04-13T20:45:01.779Z,6.30
2023-04-13T20:47:35.585Z,6.60
2023-04-13T20:50:10.366Z,6.90
2023-04-13T20:52:42.814Z,6.60
2023-04-13T20:55:17.068Z,7.20
2023-04-13T20:57:50.373Z,7.20
2023-04-13T21:00:25.021Z,7.30
2023-04-13T21:02:57.964Z,8.00
2023-04-13T21:05:30.185Z,7.50
2023-04-13T21:08:02.096Z,8.80
2023-04-13T21:10:34.052Z,6.40
2023-04-13T21:13:10.452Z,9.50
2023-04-13T21:15:42.715Z,10.40
2023-04-13T21:18:15.013Z,10.10
2023-04-13T21:20:46.799Z,10.60
2023-04-13T21:23:18.650Z,11.40
2023-04-13T21:25:50.511Z,10.80
2023-04-13T21:28:22.230Z,8.70
2023-04-13T21:30:54.074Z,11.00
2023-04-13T21:33:25.954Z,11.50
2023-04-13T21:35:57.756Z,10.60
2023-04-13T21:38:29.441Z,11.50
2023-04-13T21:41:01.713Z,11.60
2023-04-13T21:43:33.853Z,11.80
2023-04-13T21:46:06.021Z,11.10
2023-04-13T21:48:37.955Z,10.20
2023-04-13T21:51:11.279Z,10.50
2023-04-13T21:53:43.113Z,10.10
2023-04-13T21:56:14.968Z,10.60
2023-04-13T21:58:47.609Z,10.30
2023-04-13T22:01:19.460Z,10.80
2023-04-13T22:03:52.372Z,11.30
2023-04-13T22:06:24.178Z,10.50
2023-04-13T22:08:55.980Z,10.30
2023-04-13T22:11:27.799Z,10.10
2023-04-13T22:14:00.099Z,6.50
2023-04-13T22:16:32.018Z,9.60
2023-04-13T22:19:04.128Z,9.40
2023-04-13T22:21:38.678Z,9.30
2023-04-13T22:24:10.590Z,8.80
2023-04-13T22:26:42.531Z,8.60
2023-04-13T22:29:14.461Z,8.60
2023-04-13T22:31:46.815Z,7.50
2023-04-13T22:34:19.123Z,8.00
2023-04-13T22:36:53.096Z,8.00
2023-04-13T22:39:25.654Z,8.10
2023-04-13T22:41:58.241Z,7.70
2023-04-13T22:44:35.035Z,7.50
2023-04-13T22:47:07.051Z,7.50
2023-04-13T22:49:38.798Z,7.60
2023-04-13T22:52:11.593Z,7.90
2023-04-13T22:57:13.554Z,8.30
2023-04-13T22:59:45.813Z,8.20
2023-04-13T23:02:17.750Z,9.00
2023-04-13T23:04:49.870Z,11.80
2023-04-13T23:07:21.980Z,9.80
2023-04-13T23:09:54.716Z,9.80
2023-04-13T23:12:27.081Z,9.90
2023-04-13T23:14:59.331Z,8.00
2023-04-13T23:17:31.227Z,11.10
2023-04-13T23:20:05.432Z,10.90
2023-04-13T23:22:37.639Z,11.90
2023-04-13T23:25:10.553Z,11.40
2023-04-13T23:27:42.319Z,9.80
2023-04-13T23:30:16.005Z,10.60
2023-04-13T23:32:47.970Z,11.00
2023-04-13T23:35:20.107Z,10.50
2023-04-13T23:37:52.113Z,9.90
2023-04-13T23:40:24.128Z,11.80
2023-04-13T23:42:55.997Z,11.30
2023-04-13T23:45:28.532Z,8.40
2023-04-13T23:48:00.502Z,11.20
2023-04-13T23:50:32.366Z,11.50
2023-04-13T23:53:04.092Z,12.30
2023-04-13T23:55:35.993Z,12.30
2023-04-13T23:58:07.833Z,11.50
